createdAt,value
2022-11-17T00:02:35.368Z,45.58
2022-11-17T00:07:39.172Z,45.53
2022-11-17T00:13:00.713Z,45.47
2022-11-17T00:18:21.930Z,45.73
2022-11-17T00:23:25.398Z,45.47
2022-11-17T00:28:28.886Z,46.08
2022-11-17T00:33:50.468Z,46.03
2022-11-17T00:38:54.051Z,45.67
2022-11-17T00:43:57.480Z,45.24
2022-11-17T00:49:01.114Z,44.97
2022-11-17T00:54:04.603Z,45.67
2022-11-17T00:59:08.108Z,45.43
2022-11-17T01:04:11.639Z,46.01
2022-11-17T01:09:15.051Z,45.85
2022-11-17T01:14:18.496Z,45.58
2022-11-17T01:19:23.047Z,46.18
2022-11-17T01:24:26.628Z,46.10
2022-11-17T01:29:30.047Z,46.12
2022-11-17T01:34:33.566Z,45.86
2022-11-17T01:39:37.137Z,45.39
2022-11-17T01:44:40.672Z,46.14
2022-11-17T01:49:44.211Z,45.85
2022-11-17T01:54:47.623Z,46.05
2022-11-17T01:59:51.009Z,46.15
2022-11-17T02:04:55.422Z,45.96
2022-11-17T02:09:58.998Z,46.06
2022-11-17T02:15:02.407Z,46.36
2022-11-17T02:20:05.821Z,46.32
2022-11-17T02:25:09.200Z,46.33
2022-11-17T02:30:12.591Z,46.09
2022-11-17T02:35:16.086Z,45.95
2022-11-17T02:40:19.490Z,45.59
2022-11-17T02:45:22.900Z,45.49
2022-11-17T02:50:28.387Z,45.52
2022-11-17T02:55:33.281Z,45.61
2022-11-17T03:00:37.749Z,46.02
2022-11-17T03:05:41.142Z,46.13
2022-11-17T03:10:44.562Z,45.98
2022-11-17T03:15:47.964Z,45.81
2022-11-17T03:20:51.388Z,46.01
2022-11-17T03:25:54.963Z,45.93
2022-11-17T03:30:58.364Z,45.98
2022-11-17T03:36:01.770Z,46.04
2022-11-17T03:41:05.175Z,46.14
2022-11-17T03:46:08.581Z,45.95
2022-11-17T03:51:12.096Z,45.77
2022-11-17T03:56:15.501Z,46.13
2022-11-17T04:01:19.006Z,46.24
2022-11-17T04:06:22.490Z,46.27
2022-11-17T04:11:43.564Z,46.06
2022-11-17T04:16:47.982Z,46.22
2022-11-17T04:21:51.464Z,46.12
2022-11-17T04:27:12.850Z,45.99
2022-11-17T04:32:16.240Z,45.97
2022-11-17T04:37:19.641Z,46.17
2022-11-17T04:42:23.154Z,46.23
2022-11-17T04:47:26.559Z,45.99
2022-11-17T04:52:30.133Z,45.84
2022-11-17T04:57:33.623Z,44.99
2022-11-17T05:02:37.049Z,45.81
2022-11-17T05:07:42.493Z,45.85
2022-11-17T05:13:03.918Z,45.61
2022-11-17T05:18:07.340Z,45.95
2022-11-17T05:23:28.425Z,46.10
2022-11-17T05:28:31.837Z,46.01
2022-11-17T05:33:38.083Z,46.08
2022-11-17T05:38:41.713Z,46.22
2022-11-17T05:43:45.108Z,46.22
2022-11-17T05:48:48.868Z,46.30
2022-11-17T05:53:52.420Z,46.19
2022-11-17T05:58:55.881Z,46.43
2022-11-17T06:03:59.309Z,46.37
2022-11-17T06:09:03.066Z,46.25
2022-11-17T06:14:06.474Z,46.23
2022-11-17T06:19:10.154Z,45.74
2022-11-17T06:24:13.737Z,45.84
2022-11-17T06:29:17.166Z,45.62
2022-11-17T06:34:20.672Z,45.24
2022-11-17T06:39:24.124Z,45.48
2022-11-17T06:44:27.530Z,46.78
2022-11-17T06:49:31.118Z,47.23
2022-11-17T06:54:34.517Z,46.53
2022-11-17T06:59:37.972Z,46.58
2022-11-17T07:04:41.376Z,46.63
2022-11-17T07:09:44.743Z,45.98
2022-11-17T07:14:50.121Z,46.40
2022-11-17T07:19:54.492Z,45.91
2022-11-17T07:24:57.897Z,46.45
2022-11-17T07:30:01.600Z,46.83
2022-11-17T07:35:05.970Z,45.98
2022-11-17T07:40:09.360Z,46.17
2022-11-17T07:45:12.784Z,46.66
2022-11-17T07:50:16.282Z,46.28
2022-11-17T07:55:19.680Z,45.73
2022-11-17T08:00:23.092Z,45.85
2022-11-17T08:05:30.730Z,45.54
2022-11-17T08:10:34.436Z,45.84
2022-11-17T08:15:37.873Z,45.90
2022-11-17T08:20:41.339Z,45.82
2022-11-17T08:25:44.799Z,45.98
2022-11-17T08:30:48.311Z,45.86
2022-11-17T08:35:51.713Z,45.76
2022-11-17T08:40:55.256Z,45.90
2022-11-17T08:45:58.664Z,45.88
2022-11-17T08:51:02.074Z,45.75
2022-11-17T08:56:05.548Z,45.74
2022-11-17T09:01:08.995Z,45.42
2022-11-17T09:06:12.436Z,45.64
2022-11-17T09:11:16.655Z,44.61
2022-11-17T09:16:20.626Z,43.99
2022-11-17T09:21:24.024Z,44.35
2022-11-17T09:26:27.433Z,44.46
2022-11-17T09:31:30.971Z,44.37
2022-11-17T09:36:34.504Z,44.23
2022-11-17T09:41:37.871Z,44.08
2022-11-17T09:46:41.377Z,44.48
2022-11-17T09:51:44.764Z,43.93
2022-11-17T09:56:48.278Z,44.27
2022-11-17T10:01:52.539Z,44.18
2022-11-17T10:06:56.105Z,44.18
2022-11-17T10:11:59.629Z,44.16
2022-11-17T10:17:03.213Z,44.06
2022-11-17T10:22:07.133Z,43.66
2022-11-17T10:27:10.538Z,43.88
2022-11-17T10:32:13.907Z,43.55
2022-11-17T10:37:18.362Z,47.81
2022-11-17T10:42:21.711Z,48.24
2022-11-17T10:47:25.083Z,47.74
2022-11-17T10:52:28.478Z,45.31
2022-11-17T10:57:31.909Z,44.99
2022-11-17T11:02:35.295Z,44.51
2022-11-17T11:07:39.072Z,44.14
2022-11-17T11:12:42.544Z,44.51
2022-11-17T11:18:05.899Z,44.67
2022-11-17T11:23:09.368Z,44.23
2022-11-17T11:28:12.813Z,44.05
2022-11-17T11:33:16.213Z,43.69
2022-11-17T11:38:19.595Z,44.20
2022-11-17T11:43:23.027Z,43.21
2022-11-17T11:48:27.416Z,43.24
2022-11-17T11:53:30.795Z,43.26
2022-11-17T11:58:34.201Z,43.45
2022-11-17T12:03:37.731Z,43.45
2022-11-17T12:08:41.259Z,43.38
2022-11-17T12:13:49.789Z,43.16
2022-11-17T12:18:56.328Z,42.62
2022-11-17T12:23:59.699Z,42.82
2022-11-17T12:29:03.110Z,43.02
2022-11-17T12:34:06.552Z,42.77
2022-11-17T12:39:09.930Z,43.29
2022-11-17T12:44:13.799Z,42.94
2022-11-17T12:49:17.547Z,42.50
2022-11-17T12:54:21.748Z,42.60
2022-11-17T12:59:25.190Z,42.43
2022-11-17T13:04:28.580Z,42.31
2022-11-17T13:09:32.114Z,43.21
2022-11-17T13:14:35.558Z,43.24
2022-11-17T13:19:39.058Z,44.08
2022-11-17T13:24:42.481Z,44.38
2022-11-17T13:29:45.904Z,44.46
2022-11-17T13:34:49.293Z,44.56
2022-11-17T13:39:52.696Z,44.43
2022-11-17T13:44:56.160Z,44.75
2022-11-17T13:49:59.558Z,45.92
2022-11-17T13:55:02.954Z,45.63
2022-11-17T14:00:06.429Z,45.13
2022-11-17T14:05:09.966Z,45.36
2022-11-17T14:10:14.418Z,45.21
2022-11-17T14:15:17.790Z,44.99
2022-11-17T14:20:21.176Z,45.33
2022-11-17T14:25:24.570Z,45.21
2022-11-17T14:30:27.936Z,44.93
2022-11-17T14:35:31.341Z,45.25
2022-11-17T14:40:35.106Z,45.04
2022-11-17T14:45:38.558Z,45.01
2022-11-17T14:50:41.923Z,44.96
2022-11-17T14:55:45.321Z,44.88
2022-11-17T15:00:49.810Z,44.93
2022-11-17T15:05:53.214Z,44.91
2022-11-17T15:10:56.689Z,44.64
2022-11-17T15:16:00.051Z,44.81
2022-11-17T15:21:03.489Z,45.43
2022-11-17T15:26:06.893Z,45.22
2022-11-17T15:31:10.542Z,44.95
2022-11-17T15:36:13.973Z,45.24
2022-11-17T15:41:17.407Z,45.49
2022-11-17T15:46:20.791Z,44.94
2022-11-17T15:51:24.257Z,44.85
2022-11-17T15:56:27.669Z,44.80
2022-11-17T16:01:31.348Z,44.91
2022-11-17T16:06:34.700Z,44.93
2022-11-17T16:11:38.101Z,44.95
2022-11-17T16:16:41.592Z,44.76
2022-11-17T16:21:44.959Z,44.76
2022-11-17T16:26:48.420Z,44.77
2022-11-17T16:31:51.871Z,44.80
2022-11-17T16:36:55.240Z,44.70
2022-11-17T16:41:59.955Z,44.99
2022-11-17T16:47:03.457Z,45.52
2022-11-17T16:52:06.868Z,45.21
2022-11-17T16:57:10.336Z,45.49
2022-11-17T17:02:13.901Z,45.84
2022-11-17T17:07:17.402Z,45.46
2022-11-17T17:12:20.846Z,45.80
2022-11-17T17:17:24.290Z,45.65
2022-11-17T17:22:27.678Z,45.57
2022-11-17T17:27:31.034Z,45.65
2022-11-17T17:32:34.459Z,45.38
2022-11-17T17:37:37.845Z,45.38
2022-11-17T17:42:41.238Z,45.46
2022-11-17T17:47:44.623Z,46.18
2022-11-17T17:52:47.980Z,45.21
2022-11-17T17:57:51.398Z,45.47
2022-11-17T18:02:54.875Z,45.20
2022-11-17T18:07:58.395Z,45.31
2022-11-17T18:13:05.179Z,45.28
2022-11-17T18:18:11.891Z,45.30
2022-11-17T18:23:15.265Z,45.29
2022-11-17T18:28:18.677Z,45.31
2022-11-17T18:33:22.222Z,45.05
2022-11-17T18:38:25.592Z,45.10
2022-11-17T18:43:28.989Z,45.15
2022-11-17T18:48:32.437Z,45.08
2022-11-17T18:53:35.808Z,44.99
2022-11-17T18:58:39.339Z,44.76
2022-11-17T19:03:42.797Z,44.92
2022-11-17T19:08:46.215Z,44.78
2022-11-17T19:13:49.591Z,45.01
2022-11-17T19:18:53.019Z,45.04
2022-11-17T19:24:03.175Z,44.17
2022-11-17T19:29:11.202Z,45.04
2022-11-17T19:34:18.067Z,45.39
2022-11-17T19:39:21.505Z,46.99
2022-11-17T19:44:25.047Z,47.77
2022-11-17T19:49:28.632Z,47.61
2022-11-17T19:54:32.007Z,47.32
2022-11-17T19:59:35.406Z,46.92
2022-11-17T20:04:38.825Z,47.12
2022-11-17T20:09:42.253Z,46.22
2022-11-17T20:14:46.275Z,45.86
2022-11-17T20:19:50.709Z,45.93
2022-11-17T20:24:56.154Z,46.25
2022-11-17T20:30:02.698Z,45.94
2022-11-17T20:35:06.075Z,45.45
2022-11-17T20:40:09.434Z,45.30
2022-11-17T20:45:12.802Z,45.23
2022-11-17T20:50:16.196Z,45.30
2022-11-17T20:55:19.624Z,45.42
2022-11-17T21:00:23.003Z,45.60
2022-11-17T21:05:26.410Z,45.56
2022-11-17T21:10:29.779Z,45.74
2022-11-17T21:15:33.192Z,45.90
2022-11-17T21:20:36.576Z,45.90
2022-11-17T21:25:40.084Z,46.10
2022-11-17T21:30:43.762Z,46.05
2022-11-17T21:35:47.131Z,46.03
2022-11-17T21:40:50.503Z,46.19
2022-11-17T21:45:53.901Z,46.22
2022-11-17T21:50:57.282Z,46.23
2022-11-17T21:56:00.681Z,46.27
2022-11-17T22:01:04.170Z,46.20
2022-11-17T22:06:07.657Z,46.74
2022-11-17T22:11:12.061Z,47.38
2022-11-17T22:16:15.503Z,47.55
2022-11-17T22:21:19.944Z,47.37
2022-11-17T22:26:23.347Z,47.40
2022-11-17T22:31:26.768Z,47.58
2022-11-17T22:36:30.169Z,47.25
2022-11-17T22:41:33.551Z,47.48
2022-11-17T22:46:37.032Z,47.13
2022-11-17T22:51:58.181Z,47.67
2022-11-17T22:57:01.541Z,47.17
2022-11-17T23:02:04.906Z,47.07
2022-11-17T23:07:08.425Z,46.95
2022-11-17T23:12:11.909Z,46.98
2022-11-17T23:17:15.300Z,46.81
2022-11-17T23:22:18.668Z,46.85
2022-11-17T23:27:22.035Z,47.13
2022-11-17T23:32:26.476Z,47.14
2022-11-17T23:37:30.054Z,47.09
2022-11-17T23:42:35.399Z,47.11
2022-11-17T23:47:41.006Z,47.08
2022-11-17T23:52:44.442Z,47.15
2022-11-17T23:57:47.950Z,47.12
